WLF2358 EFKT-EFHK
Flight info
| Callsign | WLF2358 |
|---|---|
| Flight time | 1h 6m |
| Altitude | 39000 |
| Route | TUGPU Y86 LUSEP |
| Aircraft | B77L/H-SDE1E2E3FGHIJ2J3J4J5M1RWXY/LB1D1 |
Departure
| Time | 2026-04-18 02:12 |
|---|---|
| Airport | Kittilä International Airport (EFKT) |
Arrival
| Time | 2026-04-18 03:18 |
|---|---|
| Airport | Helsinki Vantaa Airport (EFHK) |
| Time | Latitude | Longitude | Altitude | Speed | Heading |
|---|---|---|---|---|---|
| 2026-04-18 01:54 | 67.69792 | 24.85530 | 645 ft | 0 kts | 82° |
| 2026-04-18 02:02 | 67.69792 | 24.85529 | 648 ft | 0 kts | 84° |
| 2026-04-18 02:03 | 67.69792 | 24.85531 | 645 ft | 0 kts | 84° |
| 2026-04-18 02:04 | 67.69792 | 24.85520 | 645 ft | 3 kts | 84° |
| 2026-04-18 02:04 | 67.69788 | 24.85456 | 652 ft | 2 kts | 81° |
| 2026-04-18 02:04 | 67.69779 | 24.85409 | 650 ft | 4 kts | 20° |
| 2026-04-18 02:04 | 67.69756 | 24.85392 | 647 ft | 4 kts | 12° |
| 2026-04-18 02:05 | 67.69731 | 24.85390 | 648 ft | 4 kts | 334° |
| 2026-04-18 02:05 | 67.69710 | 24.85418 | 652 ft | 1 kts | 348° |
| 2026-04-18 02:08 | 67.69724 | 24.85379 | 652 ft | 8 kts | 298° |
| 2026-04-18 02:08 | 67.69694 | 24.85232 | 647 ft | 17 kts | 223° |
| 2026-04-18 02:09 | 67.69685 | 24.84961 | 652 ft | 15 kts | 334° |
| 2026-04-18 02:09 | 67.69785 | 24.84896 | 652 ft | 15 kts | 347° |
| 2026-04-18 02:09 | 67.69891 | 24.84826 | 648 ft | 18 kts | 346° |
| 2026-04-18 02:09 | 67.70034 | 24.84730 | 647 ft | 25 kts | 342° |
| 2026-04-18 02:10 | 67.70235 | 24.84593 | 645 ft | 31 kts | 348° |
| 2026-04-18 02:10 | 67.70440 | 24.84473 | 646 ft | 30 kts | 345° |
| 2026-04-18 02:10 | 67.70641 | 24.84331 | 643 ft | 30 kts | 345° |
| 2026-04-18 02:10 | 67.70846 | 24.84209 | 641 ft | 30 kts | 348° |
| 2026-04-18 02:11 | 67.71048 | 24.84101 | 645 ft | 27 kts | 354° |
| 2026-04-18 02:11 | 67.71181 | 24.84049 | 645 ft | 14 kts | 295° |
| 2026-04-18 02:11 | 67.71151 | 24.83963 | 639 ft | 6 kts | 174° |
| 2026-04-18 02:11 | 67.71071 | 24.84063 | 642 ft | 40 kts | 157° |
| 2026-04-18 02:12 | 67.70355 | 24.84538 | 658 ft | 170 kts | 166° |
| 2026-04-18 02:12 | 67.69074 | 24.85361 | 940 ft | 185 kts | 167° |
| 2026-04-18 02:12 | 67.67840 | 24.86105 | 1539 ft | 194 kts | 166° |
| 2026-04-18 02:12 | 67.66465 | 24.86992 | 2514 ft | 210 kts | 165° |
| 2026-04-18 02:13 | 67.64944 | 24.87998 | 3120 ft | 242 kts | 165° |
| 2026-04-18 02:13 | 67.63274 | 24.89096 | 4143 ft | 252 kts | 165° |
| 2026-04-18 02:13 | 67.61557 | 24.90217 | 5226 ft | 262 kts | 165° |
| 2026-04-18 02:13 | 67.59777 | 24.91425 | 6347 ft | 267 kts | 161° |
| 2026-04-18 02:14 | 67.58038 | 24.93404 | 7312 ft | 277 kts | 150° |
| 2026-04-18 02:14 | 67.56337 | 24.95839 | 8434 ft | 280 kts | 148° |
| 2026-04-18 02:14 | 67.54625 | 24.98361 | 9573 ft | 285 kts | 148° |
| 2026-04-18 02:14 | 67.52872 | 25.00902 | 10636 ft | 292 kts | 148° |
| 2026-04-18 02:15 | 67.51030 | 25.03523 | 11293 ft | 314 kts | 149° |
| 2026-04-18 02:15 | 67.49001 | 25.06376 | 11606 ft | 348 kts | 149° |
| 2026-04-18 02:15 | 67.47561 | 25.08377 | 12109 ft | 359 kts | 149° |
| 2026-04-18 02:15 | 67.44554 | 25.12501 | 13529 ft | 371 kts | 149° |
| 2026-04-18 02:16 | 67.43032 | 25.14569 | 14288 ft | 375 kts | 149° |
| 2026-04-18 02:16 | 67.40692 | 25.17738 | 15322 ft | 382 kts | 149° |
| 2026-04-18 02:16 | 67.38320 | 25.20945 | 16377 ft | 388 kts | 149° |
| 2026-04-18 02:16 | 67.35909 | 25.24207 | 17407 ft | 394 kts | 149° |
| 2026-04-18 02:17 | 67.33456 | 25.27526 | 18408 ft | 401 kts | 148° |
| 2026-04-18 02:17 | 67.30962 | 25.30891 | 19313 ft | 407 kts | 148° |
| 2026-04-18 02:17 | 67.28350 | 25.33729 | 19907 ft | 416 kts | 164° |
| 2026-04-18 02:17 | 67.25432 | 25.34338 | 20534 ft | 422 kts | 177° |
| 2026-04-18 02:18 | 67.22476 | 25.34265 | 20963 ft | 427 kts | 178° |
| 2026-04-18 02:18 | 67.19490 | 25.34318 | 21325 ft | 432 kts | 175° |
| 2026-04-18 02:18 | 67.16463 | 25.34818 | 21826 ft | 439 kts | 172° |
| 2026-04-18 02:18 | 67.13422 | 25.35589 | 22854 ft | 440 kts | 171° |
| 2026-04-18 02:19 | 67.10355 | 25.36374 | 23740 ft | 446 kts | 171° |
| 2026-04-18 02:19 | 67.07233 | 25.37085 | 24432 ft | 454 kts | 172° |
| 2026-04-18 02:19 | 67.04063 | 25.37701 | 25123 ft | 460 kts | 172° |
| 2026-04-18 02:19 | 67.00857 | 25.38247 | 25876 ft | 464 kts | 173° |
| 2026-04-18 02:20 | 66.97620 | 25.38762 | 26613 ft | 468 kts | 173° |
| 2026-04-18 02:20 | 66.94349 | 25.39278 | 27331 ft | 473 kts | 173° |
| 2026-04-18 02:20 | 66.91051 | 25.39810 | 28010 ft | 478 kts | 173° |
| 2026-04-18 02:20 | 66.87715 | 25.40362 | 28681 ft | 483 kts | 173° |
| 2026-04-18 02:21 | 66.84347 | 25.40923 | 29357 ft | 488 kts | 173° |
| 2026-04-18 02:21 | 66.80942 | 25.41488 | 30017 ft | 492 kts | 173° |
| 2026-04-18 02:21 | 66.77511 | 25.42054 | 30642 ft | 496 kts | 173° |
| 2026-04-18 02:21 | 66.74052 | 25.42620 | 31190 ft | 500 kts | 173° |
| 2026-04-18 02:22 | 66.70564 | 25.43186 | 31679 ft | 504 kts | 173° |
| 2026-04-18 02:22 | 66.67055 | 25.43753 | 32161 ft | 507 kts | 173° |
| 2026-04-18 02:22 | 66.63516 | 25.44323 | 32654 ft | 510 kts | 174° |
| 2026-04-18 02:22 | 66.59981 | 25.44891 | 33261 ft | 509 kts | 174° |
| 2026-04-18 02:23 | 66.56450 | 25.45456 | 33946 ft | 507 kts | 174° |
| 2026-04-18 02:23 | 66.52943 | 25.46018 | 34586 ft | 505 kts | 174° |
| 2026-04-18 02:23 | 66.49423 | 25.46584 | 34982 ft | 509 kts | 174° |
| 2026-04-18 02:23 | 66.45875 | 25.47153 | 35328 ft | 511 kts | 174° |
| 2026-04-18 02:24 | 66.42327 | 25.47720 | 35829 ft | 510 kts | 174° |
| 2026-04-18 02:24 | 66.38791 | 25.48286 | 36348 ft | 508 kts | 174° |
| 2026-04-18 02:24 | 66.35309 | 25.48843 | 36823 ft | 508 kts | 174° |
| 2026-04-18 02:24 | 66.31785 | 25.49404 | 37267 ft | 508 kts | 175° |
| 2026-04-18 02:25 | 66.28251 | 25.49964 | 37702 ft | 508 kts | 175° |
| 2026-04-18 02:25 | 66.24723 | 25.50521 | 38145 ft | 508 kts | 175° |
| 2026-04-18 02:25 | 66.21198 | 25.51075 | 38584 ft | 508 kts | 175° |
| 2026-04-18 02:25 | 66.17674 | 25.51627 | 39001 ft | 507 kts | 175° |
| 2026-04-18 02:26 | 66.14149 | 25.52179 | 39332 ft | 507 kts | 175° |
| 2026-04-18 02:26 | 66.10616 | 25.52732 | 39454 ft | 513 kts | 175° |
| 2026-04-18 02:26 | 66.07050 | 25.53248 | 39395 ft | 514 kts | 177° |
| 2026-04-18 02:27 | 65.99955 | 25.53275 | 39407 ft | 505 kts | 181° |
| 2026-04-18 02:27 | 65.92955 | 25.52548 | 39415 ft | 503 kts | 182° |
| 2026-04-18 02:28 | 65.85965 | 25.51880 | 39416 ft | 503 kts | 181° |
| 2026-04-18 02:28 | 65.78953 | 25.51415 | 39413 ft | 504 kts | 181° |
| 2026-04-18 02:29 | 65.71931 | 25.51032 | 39414 ft | 505 kts | 181° |
| 2026-04-18 02:29 | 65.64901 | 25.50640 | 39408 ft | 506 kts | 181° |
| 2026-04-18 02:30 | 65.57860 | 25.50227 | 39408 ft | 506 kts | 181° |
| 2026-04-18 02:30 | 65.50810 | 25.49811 | 39402 ft | 507 kts | 181° |
| 2026-04-18 02:31 | 65.43758 | 25.49405 | 39399 ft | 507 kts | 181° |
| 2026-04-18 02:31 | 65.36742 | 25.49000 | 39388 ft | 507 kts | 181° |
| 2026-04-18 02:32 | 65.29646 | 25.48591 | 39404 ft | 507 kts | 181° |
| 2026-04-18 02:32 | 65.22591 | 25.48169 | 39394 ft | 507 kts | 181° |
| 2026-04-18 02:33 | 65.15586 | 25.47739 | 39381 ft | 507 kts | 181° |
| 2026-04-18 02:33 | 65.08541 | 25.47323 | 39378 ft | 507 kts | 181° |
| 2026-04-18 02:34 | 65.01492 | 25.46946 | 39372 ft | 507 kts | 181° |
| 2026-04-18 02:34 | 64.94428 | 25.46558 | 39376 ft | 507 kts | 181° |
| 2026-04-18 02:35 | 64.87367 | 25.46146 | 39378 ft | 508 kts | 181° |
| 2026-04-18 02:35 | 64.80299 | 25.45733 | 39375 ft | 508 kts | 181° |
| 2026-04-18 02:36 | 64.73230 | 25.45327 | 39377 ft | 509 kts | 181° |
| 2026-04-18 02:36 | 64.66160 | 25.44926 | 39373 ft | 508 kts | 181° |
| 2026-04-18 02:37 | 64.59091 | 25.44527 | 39377 ft | 508 kts | 181° |
| 2026-04-18 02:37 | 64.52023 | 25.44127 | 39374 ft | 508 kts | 181° |
| 2026-04-18 02:38 | 64.44963 | 25.43731 | 39374 ft | 508 kts | 181° |
| 2026-04-18 02:38 | 64.37906 | 25.43339 | 39374 ft | 507 kts | 181° |
| 2026-04-18 02:39 | 64.30853 | 25.42955 | 39381 ft | 507 kts | 181° |
| 2026-04-18 02:39 | 64.23795 | 25.42571 | 39375 ft | 508 kts | 181° |
| 2026-04-18 02:40 | 64.16729 | 25.42185 | 39374 ft | 508 kts | 181° |
| 2026-04-18 02:40 | 64.09657 | 25.41803 | 39369 ft | 509 kts | 181° |
| 2026-04-18 02:41 | 64.02579 | 25.41422 | 39341 ft | 509 kts | 181° |
| 2026-04-18 02:41 | 63.95501 | 25.41045 | 39353 ft | 509 kts | 181° |
| 2026-04-18 02:42 | 63.88467 | 25.40669 | 39362 ft | 509 kts | 181° |
| 2026-04-18 02:42 | 63.81389 | 25.40298 | 39359 ft | 509 kts | 181° |
| 2026-04-18 02:43 | 63.74308 | 25.39986 | 39355 ft | 509 kts | 181° |
| 2026-04-18 02:43 | 63.67230 | 25.39636 | 39345 ft | 508 kts | 181° |
| 2026-04-18 02:44 | 63.60160 | 25.39205 | 39360 ft | 508 kts | 181° |
| 2026-04-18 02:44 | 63.53103 | 25.38818 | 39363 ft | 507 kts | 181° |
| 2026-04-18 02:45 | 63.46051 | 25.38474 | 39349 ft | 507 kts | 181° |
| 2026-04-18 02:45 | 63.39000 | 25.38123 | 39347 ft | 507 kts | 181° |
| 2026-04-18 02:46 | 63.31945 | 25.37765 | 39342 ft | 506 kts | 181° |
| 2026-04-18 02:46 | 63.24904 | 25.37407 | 39342 ft | 506 kts | 181° |
| 2026-04-18 02:47 | 63.17859 | 25.37053 | 39340 ft | 506 kts | 181° |
| 2026-04-18 02:47 | 63.10812 | 25.36700 | 39340 ft | 506 kts | 181° |
| 2026-04-18 02:48 | 63.03770 | 25.36351 | 39338 ft | 506 kts | 181° |
| 2026-04-18 02:48 | 62.96721 | 25.36003 | 39344 ft | 506 kts | 181° |
| 2026-04-18 02:49 | 62.89737 | 25.35658 | 38797 ft | 498 kts | 181° |
| 2026-04-18 02:49 | 62.86295 | 25.35489 | 38339 ft | 492 kts | 181° |
| 2026-04-18 02:49 | 62.82932 | 25.35325 | 37907 ft | 487 kts | 181° |
| 2026-04-18 02:49 | 62.79563 | 25.35160 | 37516 ft | 481 kts | 181° |
| 2026-04-18 02:50 | 62.76230 | 25.34995 | 37088 ft | 477 kts | 181° |
| 2026-04-18 02:50 | 62.72932 | 25.34829 | 36675 ft | 472 kts | 182° |
| 2026-04-18 02:50 | 62.69658 | 25.34664 | 36221 ft | 469 kts | 182° |
| 2026-04-18 02:50 | 62.66407 | 25.34501 | 35766 ft | 466 kts | 182° |
| 2026-04-18 02:51 | 62.63181 | 25.34339 | 35357 ft | 462 kts | 182° |
| 2026-04-18 02:51 | 62.59975 | 25.34179 | 34938 ft | 459 kts | 182° |
| 2026-04-18 02:51 | 62.56796 | 25.34020 | 34518 ft | 456 kts | 182° |
| 2026-04-18 02:51 | 62.53633 | 25.33863 | 34069 ft | 453 kts | 182° |
| 2026-04-18 02:52 | 62.50487 | 25.33709 | 33620 ft | 450 kts | 182° |
| 2026-04-18 02:52 | 62.47368 | 25.33561 | 33181 ft | 447 kts | 182° |
| 2026-04-18 02:52 | 62.44275 | 25.33416 | 32777 ft | 443 kts | 182° |
| 2026-04-18 02:52 | 62.41210 | 25.33273 | 32375 ft | 439 kts | 182° |
| 2026-04-18 02:53 | 62.38163 | 25.33131 | 31970 ft | 436 kts | 183° |
| 2026-04-18 02:53 | 62.35146 | 25.32990 | 31586 ft | 432 kts | 183° |
| 2026-04-18 02:53 | 62.32147 | 25.32848 | 31191 ft | 429 kts | 183° |
| 2026-04-18 02:53 | 62.29172 | 25.32708 | 30815 ft | 427 kts | 183° |
| 2026-04-18 02:54 | 62.26213 | 25.32569 | 30431 ft | 424 kts | 183° |
| 2026-04-18 02:54 | 62.23270 | 25.32430 | 29993 ft | 422 kts | 183° |
| 2026-04-18 02:54 | 62.20348 | 25.32291 | 29578 ft | 418 kts | 183° |
| 2026-04-18 02:54 | 62.17452 | 25.32155 | 29194 ft | 415 kts | 183° |
| 2026-04-18 02:55 | 62.14580 | 25.32019 | 28809 ft | 411 kts | 183° |
| 2026-04-18 02:55 | 62.11733 | 25.31886 | 28424 ft | 408 kts | 183° |
| 2026-04-18 02:55 | 62.08906 | 25.31756 | 28044 ft | 405 kts | 183° |
| 2026-04-18 02:55 | 62.06102 | 25.31625 | 27708 ft | 402 kts | 183° |
| 2026-04-18 02:56 | 62.03305 | 25.31483 | 27313 ft | 400 kts | 183° |
| 2026-04-18 02:56 | 62.00528 | 25.31338 | 26922 ft | 398 kts | 184° |
| 2026-04-18 02:56 | 61.95034 | 25.31059 | 26196 ft | 393 kts | 183° |
| 2026-04-18 02:57 | 61.92309 | 25.30929 | 25842 ft | 391 kts | 183° |
| 2026-04-18 02:57 | 61.89596 | 25.30801 | 25482 ft | 389 kts | 183° |
| 2026-04-18 02:57 | 61.86900 | 25.30674 | 25112 ft | 387 kts | 183° |
| 2026-04-18 02:57 | 61.84213 | 25.30547 | 24761 ft | 385 kts | 183° |
| 2026-04-18 02:58 | 61.81576 | 25.30423 | 24410 ft | 384 kts | 183° |
| 2026-04-18 02:58 | 61.78913 | 25.30297 | 24060 ft | 382 kts | 183° |
| 2026-04-18 02:58 | 61.76257 | 25.30172 | 23672 ft | 381 kts | 183° |
| 2026-04-18 02:58 | 61.73607 | 25.30046 | 23272 ft | 380 kts | 183° |
| 2026-04-18 02:59 | 61.70974 | 25.29922 | 22898 ft | 377 kts | 183° |
| 2026-04-18 02:59 | 61.68357 | 25.29800 | 22545 ft | 374 kts | 183° |
| 2026-04-18 02:59 | 61.65765 | 25.29679 | 22193 ft | 372 kts | 183° |
| 2026-04-18 02:59 | 61.63182 | 25.29558 | 21831 ft | 370 kts | 183° |
| 2026-04-18 03:00 | 61.60618 | 25.29438 | 21477 ft | 368 kts | 182° |
| 2026-04-18 03:00 | 61.58059 | 25.29321 | 21135 ft | 366 kts | 182° |
| 2026-04-18 03:00 | 61.55519 | 25.29206 | 20788 ft | 365 kts | 182° |
| 2026-04-18 03:00 | 61.52986 | 25.29092 | 20436 ft | 363 kts | 182° |
| 2026-04-18 03:01 | 61.50464 | 25.28979 | 20087 ft | 362 kts | 182° |
| 2026-04-18 03:01 | 61.47947 | 25.28866 | 19736 ft | 361 kts | 182° |
| 2026-04-18 03:01 | 61.45435 | 25.28753 | 19384 ft | 361 kts | 182° |
| 2026-04-18 03:01 | 61.42929 | 25.28640 | 19035 ft | 360 kts | 182° |
| 2026-04-18 03:02 | 61.41231 | 25.28564 | 18800 ft | 362 kts | 182° |
| 2026-04-18 03:02 | 61.38700 | 25.28451 | 18422 ft | 366 kts | 182° |
| 2026-04-18 03:02 | 61.36144 | 25.28337 | 18015 ft | 368 kts | 182° |
| 2026-04-18 03:02 | 61.33575 | 25.28223 | 17656 ft | 371 kts | 182° |
| 2026-04-18 03:03 | 61.31022 | 25.28110 | 17278 ft | 373 kts | 182° |
| 2026-04-18 03:03 | 61.28421 | 25.27994 | 16898 ft | 375 kts | 182° |
| 2026-04-18 03:03 | 61.25809 | 25.27877 | 16529 ft | 376 kts | 182° |
| 2026-04-18 03:03 | 61.23192 | 25.27760 | 16150 ft | 377 kts | 182° |
| 2026-04-18 03:04 | 61.20563 | 25.27641 | 15768 ft | 378 kts | 182° |
| 2026-04-18 03:04 | 61.17934 | 25.27521 | 15397 ft | 379 kts | 182° |
| 2026-04-18 03:04 | 61.15292 | 25.27401 | 15026 ft | 380 kts | 182° |
| 2026-04-18 03:04 | 61.12648 | 25.27281 | 14662 ft | 381 kts | 182° |
| 2026-04-18 03:05 | 61.09996 | 25.27162 | 14274 ft | 381 kts | 182° |
| 2026-04-18 03:05 | 61.07341 | 25.27043 | 13874 ft | 382 kts | 182° |
| 2026-04-18 03:05 | 61.04686 | 25.26924 | 13441 ft | 382 kts | 182° |
| 2026-04-18 03:05 | 61.02033 | 25.26806 | 13056 ft | 381 kts | 182° |
| 2026-04-18 03:06 | 60.99390 | 25.26687 | 12672 ft | 380 kts | 182° |
| 2026-04-18 03:06 | 60.96753 | 25.26569 | 12293 ft | 379 kts | 181° |
| 2026-04-18 03:06 | 60.94124 | 25.26467 | 11920 ft | 377 kts | 181° |
| 2026-04-18 03:06 | 60.91504 | 25.26513 | 11547 ft | 376 kts | 179° |
| 2026-04-18 03:07 | 60.88889 | 25.26731 | 11164 ft | 375 kts | 177° |
| 2026-04-18 03:07 | 60.86285 | 25.26997 | 10787 ft | 374 kts | 177° |
| 2026-04-18 03:07 | 60.83685 | 25.27219 | 10443 ft | 372 kts | 178° |
| 2026-04-18 03:07 | 60.81120 | 25.27399 | 10292 ft | 365 kts | 178° |
| 2026-04-18 03:08 | 60.78630 | 25.27556 | 10025 ft | 344 kts | 178° |
| 2026-04-18 03:08 | 60.76332 | 25.27698 | 9769 ft | 318 kts | 178° |
| 2026-04-18 03:08 | 60.74158 | 25.27834 | 9490 ft | 309 kts | 178° |
| 2026-04-18 03:08 | 60.72051 | 25.27968 | 9386 ft | 293 kts | 178° |
| 2026-04-18 03:09 | 60.70104 | 25.27809 | 8906 ft | 277 kts | 194° |
| 2026-04-18 03:09 | 60.68444 | 25.25943 | 8163 ft | 272 kts | 226° |
| 2026-04-18 03:09 | 60.67238 | 25.23075 | 7945 ft | 267 kts | 235° |
| 2026-04-18 03:09 | 60.66093 | 25.19962 | 7667 ft | 281 kts | 235° |
| 2026-04-18 03:10 | 60.64892 | 25.16796 | 7341 ft | 283 kts | 233° |
| 2026-04-18 03:10 | 60.63674 | 25.13680 | 7009 ft | 278 kts | 233° |
| 2026-04-18 03:10 | 60.62393 | 25.10844 | 6690 ft | 270 kts | 216° |
| 2026-04-18 03:10 | 60.60666 | 25.09415 | 6416 ft | 270 kts | 186° |
| 2026-04-18 03:11 | 60.58808 | 25.09592 | 6169 ft | 267 kts | 163° |
| 2026-04-18 03:11 | 60.57147 | 25.11092 | 5991 ft | 255 kts | 148° |
| 2026-04-18 03:11 | 60.55626 | 25.12830 | 5880 ft | 247 kts | 149° |
| 2026-04-18 03:11 | 60.54116 | 25.14406 | 5772 ft | 242 kts | 151° |
| 2026-04-18 03:12 | 60.52542 | 25.15587 | 5511 ft | 245 kts | 172° |
| 2026-04-18 03:12 | 60.50874 | 25.15033 | 5222 ft | 245 kts | 205° |
| 2026-04-18 03:12 | 60.49613 | 25.12872 | 4905 ft | 238 kts | 236° |
| 2026-04-18 03:12 | 60.48947 | 25.09897 | 4646 ft | 234 kts | 255° |
| 2026-04-18 03:13 | 60.48543 | 25.06696 | 4370 ft | 234 kts | 259° |
| 2026-04-18 03:13 | 60.48170 | 25.03481 | 4095 ft | 234 kts | 258° |
| 2026-04-18 03:13 | 60.47788 | 25.00310 | 3821 ft | 230 kts | 258° |
| 2026-04-18 03:13 | 60.47400 | 24.97202 | 3556 ft | 224 kts | 257° |
| 2026-04-18 03:14 | 60.47009 | 24.94121 | 3341 ft | 222 kts | 257° |
| 2026-04-18 03:14 | 60.46633 | 24.91185 | 3237 ft | 210 kts | 257° |
| 2026-04-18 03:14 | 60.46240 | 24.88465 | 2980 ft | 191 kts | 245° |
| 2026-04-18 03:14 | 60.45354 | 24.86716 | 2788 ft | 174 kts | 198° |
| 2026-04-18 03:15 | 60.44234 | 24.86663 | 2671 ft | 156 kts | 165° |
| 2026-04-18 03:15 | 60.43144 | 24.87031 | 2369 ft | 159 kts | 166° |
| 2026-04-18 03:15 | 60.42092 | 24.87577 | 2136 ft | 154 kts | 156° |
| 2026-04-18 03:15 | 60.41098 | 24.88362 | 1872 ft | 155 kts | 152° |
| 2026-04-18 03:16 | 60.40126 | 24.89145 | 1712 ft | 145 kts | 152° |
| 2026-04-18 03:16 | 60.39216 | 24.90007 | 1539 ft | 143 kts | 150° |
| 2026-04-18 03:16 | 60.38335 | 24.90941 | 1478 ft | 143 kts | 147° |
| 2026-04-18 03:16 | 60.37442 | 24.91862 | 1206 ft | 143 kts | 149° |
| 2026-04-18 03:17 | 60.36547 | 24.92765 | 966 ft | 144 kts | 148° |
| 2026-04-18 03:17 | 60.35673 | 24.93737 | 733 ft | 143 kts | 149° |
| 2026-04-18 03:17 | 60.34823 | 24.94640 | 587 ft | 134 kts | 150° |
| 2026-04-18 03:17 | 60.33985 | 24.95485 | 364 ft | 132 kts | 152° |
| 2026-04-18 03:18 | 60.33172 | 24.96295 | 237 ft | 128 kts | 152° |
| 2026-04-18 03:18 | 60.32414 | 24.97087 | 177 ft | 119 kts | 153° |
| 2026-04-18 03:18 | 60.31765 | 24.97754 | 180 ft | 76 kts | 154° |
| 2026-04-18 03:18 | 60.31506 | 24.97968 | 182 ft | 31 kts | 179° |
| 2026-04-18 03:19 | 60.31409 | 24.97815 | 193 ft | 0 kts | 238° |
| 2026-04-18 03:19 | 60.31403 | 24.97797 | 200 ft | 6 kts | 239° |
| 2026-04-18 03:19 | 60.31393 | 24.97761 | 187 ft | 0 kts | 240° |
| 2026-04-18 03:20 | 60.31392 | 24.97760 | 199 ft | 2 kts | 240° |
| 2026-04-18 03:20 | 60.31379 | 24.97692 | 194 ft | 5 kts | 263° |
| 2026-04-18 03:20 | 60.31383 | 24.97663 | 193 ft | 0 kts | 292° |
| 2026-04-18 03:20 | 60.31390 | 24.97624 | 184 ft | 6 kts | 281° |
| 2026-04-18 03:21 | 60.31383 | 24.97571 | 183 ft | 2 kts | 249° |
| 2026-04-18 03:21 | 60.31380 | 24.97546 | 183 ft | 2 kts | 251° |
| 2026-04-18 03:21 | 60.31376 | 24.97531 | 183 ft | 0 kts | 244° |
| 2026-04-18 03:21 | 60.31375 | 24.97529 | 183 ft | 0 kts | 244° |